• Join FlightAware (Why Join?)
  • Login
  • US Flag 
04:53AM EDT


 

Airport Tracker/Info


-or-


 

Live Flight TrackerFlight Track Log ✈ XOJ549 ✈ 04-May-2013 ✈ KSDL - KPWK

Flight Track Log - Related Links

Times and Time Zones

All times are in EDT time to prevent confusion due to time zone crossing. See the XOJ549 flight status page for this flight to view local times or setup timezone preferences in your user account.

Time Position Orientation Groundspeed Altitude Reporting Facility
EDT Latitude Longitude Course Direction KTS MPH feet Rate Location/Type
01:22PM 33.6167 -111.9333 270° West 186 214 2,500  Level Phoenix TRACON
01:23PM 33.6167 -111.9500 270° West 203 234 3,700 2,580 Climbing Phoenix TRACON
01:24PM 33.6500 -112.0000 309° West 245 282 6,200 2,100 Climbing Phoenix TRACON
01:25PM 33.7167 -111.9667 23° Northeast 267 307 8,000 2,700 Climbing Phoenix TRACON
01:26PM 33.7517 -111.8725 66° East 295 339 12,200 3,420 Climbing Albuquerque Center
01:27PM 33.7397 -111.7708 98° East 310 357 15,700 3,180 Climbing Albuquerque Center
01:28PM 33.7289 -111.6600 97° East 335 386 18,800 2,340 Climbing Albuquerque Center
01:29PM 33.7133 -111.5106 97° East 376 433 20,600 1,620 Climbing Albuquerque Center
01:30PM 33.6989 -111.3783 97° East 399 459 22,200 2,220 Climbing Albuquerque Center
01:31PM 33.7028 -111.2444 88° East 417 480 25,200 2,640 Climbing Albuquerque Center
01:32PM 33.7467 -111.1153 68° East 422 486 27,700 2,400 Climbing Albuquerque Center
01:33PM 33.7892 -110.9811 69° East 430 495 30,200 2,280 Climbing Albuquerque Center
01:34PM 33.8336 -110.8461 68° East 434 499 32,400 1,980 Climbing Albuquerque Center
01:35PM 33.8861 -110.6800 69° East 442 509 34,300 1,680 Climbing Albuquerque Center
01:36PM 33.9317 -110.5358 69° East 455 524 35,900 1,500 Climbing Albuquerque Center
01:37PM 33.9789 -110.3883 69° East 467 537 37,400 1,500 Climbing Albuquerque Center
01:38PM 34.0239 -110.2489 69° East 472 543 39,000 1,500 Climbing Albuquerque Center
01:39PM 34.0783 -110.0767 69° East 465 535 40,500 960 Climbing Albuquerque Center
01:40PM 34.1247 -109.9281 69° East 464 534 41,000 240 Climbing Albuquerque Center
01:41PM 34.1711 -109.7842 69° East 473 544 41,000  Level Albuquerque Center
01:42PM 34.2242 -109.6078 70° East 493 567 41,000  Level Albuquerque Center
01:43PM 34.2694 -109.4575 70° East 497 572 41,000  Level Albuquerque Center
01:44PM 34.3236 -109.2844 69° East 495 570 41,000  Level Albuquerque Center
01:45PM 34.3692 -109.1356 70° East 495 570 41,000  Level Albuquerque Center
01:46PM 34.4217 -108.9619 70° East 493 567 41,000  Level Albuquerque Center
01:47PM 34.4656 -108.8128 70° East 492 566 41,000  Level Albuquerque Center
01:48PM 34.5181 -108.6381 70° East 494 568 41,000  Level Albuquerque Center
01:49PM 34.5625 -108.4886 70° East 494 568 41,000  Level Albuquerque Center
01:50PM 34.6081 -108.3344 70° East 494 568 41,000  Level Albuquerque Center
01:51PM 34.6539 -108.1783 70° East 493 567 41,000  Level Albuquerque Center
01:53PM 34.7003 -108.0214 70° East 493 567 41,000  Level Albuquerque Center
01:54PM 34.7464 -107.8658 70° East 492 566 41,000  Level Albuquerque Center
01:55PM 34.7992 -107.6781 71° East 490 564 41,000  Level Albuquerque Center
01:56PM 34.8444 -107.5239 70° East 486 559 41,000  Level Albuquerque Center
01:57PM 34.8889 -107.3667 71° East 491 565 41,000  Level Albuquerque Center
01:58PM 34.9336 -107.2092 71° East 492 566 41,000  Level Albuquerque Center
01:59PM 34.9822 -107.0414 70° East 493 567 41,000  Level Albuquerque Center
02:00PM 35.0311 -106.8644 71° East 494 568 41,000  Level Albuquerque Center
02:01PM 35.0819 -106.7197 67° East 487 560 41,000  Level Albuquerque Center
02:02PM 35.1369 -106.5722 65° Northeast 494 568 41,000  Level Albuquerque Center
02:03PM 35.1947 -106.4136 66° East 501 577 41,000  Level Albuquerque Center
02:04PM 35.2519 -106.2606 65° Northeast 497 572 41,000  Level Albuquerque Center
02:05PM 35.3122 -106.0944 66° East 492 566 41,000  Level Albuquerque Center
02:06PM 35.3756 -105.9228 66° East 500 575 41,000  Level Albuquerque Center
02:07PM 35.4286 -105.7825 65° Northeast 500 575 41,000  Level Albuquerque Center
02:08PM 35.4944 -105.6014 66° East 495 570 41,000  Level Albuquerque Center
02:09PM 35.5472 -105.4481 67° East 486 559 41,000  Level Albuquerque Center
02:10PM 35.6011 -105.2933 67° East 485 558 41,000  Level Albuquerque Center
02:11PM 35.6583 -105.1392 65° Northeast 489 563 41,000  Level Albuquerque Center
02:12PM 35.7331 -104.9994 57° Northeast 484 557 41,000  Level Albuquerque Center
02:13PM 35.8078 -104.8619 56° Northeast 478 550 41,000 240 Level Albuquerque Center
02:14PM 35.8817 -104.7233 57° Northeast 478 550 41,500 480 Climbing Albuquerque Center
02:15PM 35.9581 -104.5839 56° Northeast 482 555 42,100 480 Climbing Albuquerque Center
02:16PM 36.0319 -104.4442 57° Northeast 480 552 42,500 480 Climbing Albuquerque Center
02:17PM 36.1092 -104.3006 56° Northeast 489 563 43,100 900 Climbing Albuquerque Center
02:18PM 36.1836 -104.1614 56° Northeast 485 558 44,400 780 Climbing Albuquerque Center
02:19PM 36.2556 -104.0281 56° Northeast 468 539 44,700 240 Climbing Albuquerque Center
02:20PM 36.3408 -103.8675 57° Northeast 469 540 45,000 120 Climbing Albuquerque Center
02:21PM 36.4144 -103.7281 57° Northeast 475 547 45,000  Level Albuquerque Center
02:22PM 36.4894 -103.5850 57° Northeast 484 557 45,000  Level Albuquerque Center
02:23PM 36.5633 -103.4422 57° Northeast 487 560 45,000  Level Albuquerque Center
02:24PM 36.6372 -103.2986 57° Northeast 486 559 45,000  Level Albuquerque Center
02:25PM 36.7114 -103.1553 57° Northeast 485 558 45,000  Level Albuquerque Center
02:26PM 36.7806 -103.0208 57° Northeast 483 556 45,000  Level Albuquerque Center
02:27PM 36.8611 -102.8639 57° Northeast 482 555 45,000  Level Albuquerque Center
02:29PM 36.9306 -102.7294 57° Northeast 481 554 45,000  Level Albuquerque Center
02:30PM 37.0106 -102.5733 57° Northeast 479 551 45,000  Level Albuquerque Center
02:31PM 37.0739 -102.4475 58° Northeast 475 547 45,000  Level Albuquerque Center
02:32PM 37.1564 -102.2831 58° Northeast 478 550 45,000  Level Albuquerque Center
02:33PM 37.2203 -102.1544 58° Northeast 479 551 45,000  Level Albuquerque Center
02:34PM 37.2997 -101.9953 58° Northeast 482 555 45,000  Level Albuquerque Center
02:35PM 37.3672 -101.8589 58° Northeast 482 555 45,000  Level Albuquerque Center
02:36PM 37.4458 -101.6978 58° Northeast 483 556 45,000  Level Kansas City Center
02:37PM 37.5247 -101.5378 58° Northeast 482 555 45,000  Level Kansas City Center
02:38PM 37.5925 -101.4003 58° Northeast 481 554 45,000  Level Kansas City Center
02:39PM 37.6589 -101.2647 58° Northeast 476 548 45,000  Level Kansas City Center
02:40PM 37.7367 -101.1044 58° Northeast 475 547 45,000  Level Kansas City Center
02:41PM 37.8044 -100.9642 59° Northeast 479 551 45,000  Level Kansas City Center
02:42PM 37.8733 -100.8239 58° Northeast 481 554 45,000  Level Kansas City Center
02:43PM 37.9428 -100.6569 62° Northeast 479 551 45,000  Level Kansas City Center
02:44PM 37.9917 -100.5108 67° East 471 542 45,000  Level Kansas City Center
02:45PM 38.0497 -100.3386 67° East 473 544 45,000  Level Kansas City Center
02:46PM 38.0994 -100.1869 67° East 482 555 45,000  Level Kansas City Center
02:47PM 38.1511 -100.0372 66° East 483 556 45,000  Level Kansas City Center
02:48PM 38.2078 -99.8650 67° East 477 549 45,000  Level Kansas City Center
02:49PM 38.2572 -99.7172 67° East 474 545 45,000  Level Kansas City Center
02:50PM 38.3117 -99.5461 68° East 469 540 45,000  Level Kansas City Center
02:51PM 38.3606 -99.4008 67° East 468 539 45,000  Level Kansas City Center
02:52PM 38.4103 -99.2489 67° East 465 535 45,000  Level Kansas City Center
02:53PM 38.4589 -99.0975 68° East 463 533 45,000  Level Kansas City Center
02:54PM 38.5081 -98.9456 67° East 461 531 45,000  Level Kansas City Center
02:55PM 38.5589 -98.7919 67° East 468 539 45,000  Level Kansas City Center
02:56PM 38.6081 -98.6386 68° East 464 534 45,000  Level Kansas City Center
02:57PM 38.6578 -98.4825 68° East 473 544 45,000  Level Kansas City Center
02:58PM 38.7153 -98.2969 68° East 467 537 45,000  Level Kansas City Center
02:59PM 38.7650 -98.1408 68° East 470 541 45,000  Level Kansas City Center
03:00PM 38.8128 -97.9867 68° East 464 534 45,000  Level Kansas City Center
03:01PM 38.8639 -97.8203 68° East 468 539 45,000  Level Kansas City Center
03:02PM 38.9100 -97.6739 68° East 464 534 45,000  Level Kansas City Center
03:04PM 38.9594 -97.5303 66° East 462 532 45,000  Level Kansas City Center
03:05PM 39.0283 -97.3667 62° Northeast 463 533 45,000  Level Kansas City Center
03:06PM 39.0839 -97.2264 63° Northeast 460 529 45,000  Level Kansas City Center
03:07PM 39.1497 -97.0639 62° Northeast 459 528 45,000  Level Kansas City Center
03:08PM 39.2033 -96.9219 64° Northeast 459 528 45,000  Level Kansas City Center
03:09PM 39.2578 -96.7817 63° Northeast 457 526 45,000  Level Kansas City Center
03:10PM 39.3228 -96.6178 63° Northeast 457 526 45,000  Level Kansas City Center
03:11PM 39.3783 -96.4694 64° Northeast 457 526 45,000  Level Kansas City Center
03:12PM 39.4369 -96.3217 63° Northeast 460 529 45,000  Level Kansas City Center
03:13PM 39.4933 -96.1744 64° Northeast 457 526 45,000  Level Kansas City Center
03:14PM 39.5492 -96.0267 64° Northeast 460 529 45,000  Level Kansas City Center
03:15PM 39.6125 -95.8600 64° Northeast 460 529 45,000  Level Kansas City Center
03:16PM 39.6667 -95.7167 64° Northeast 459 528 45,000  Level Kansas City Center
03:17PM 39.7278 -95.5522 64° Northeast 453 521 45,000  Level Kansas City Center
03:18PM 39.7811 -95.4106 64° Northeast 454 522 45,000  Level Kansas City Center
03:19PM 39.8328 -95.2692 65° Northeast 450 518 45,000  Level Kansas City Center
03:20PM 39.8936 -95.1067 64° Northeast 447 514 45,000  Level Kansas City Center
03:21PM 39.9453 -94.9656 64° Northeast 448 516 45,000  Level Kansas City Center
03:22PM 39.9956 -94.8233 65° Northeast 450 518 45,000  Level Kansas City Center
03:23PM 40.0517 -94.6558 66° East 450 518 45,000  Level Kansas City Center
03:24PM 40.1008 -94.5128 66° East 451 519 45,000  Level Kansas City Center
03:25PM 40.1578 -94.3447 66° East 453 521 45,000  Level Kansas City Center
03:26PM 40.2053 -94.2003 67° East 450 518 45,000  Level Kansas City Center
03:27PM 40.2572 -94.0411 67° East 454 522 45,000  Level Kansas City Center
03:28PM 40.3064 -93.8894 67° East 456 525 45,000  Level Kansas City Center
03:29PM 40.3556 -93.7400 67° East 451 519 45,000  Level Kansas City Center
03:30PM 40.4067 -93.5897 66° East 452 520 45,000  Level Kansas City Center
03:31PM 40.4547 -93.4400 67° East 449 517 45,000  Level Kansas City Center
03:32PM 40.5036 -93.2889 67° East 450 518 45,000  Level Kansas City Center
03:33PM 40.5633 -93.1078 66° East 450 518 45,000  Level Kansas City Center
03:34PM 40.6122 -92.9544 67° East 452 520 45,000  Level Kansas City Center
03:35PM 40.6836 -92.8167 56° Northeast 455 524 45,000  Level Kansas City Center
03:36PM 40.7142 -92.7628 53° Northeast 453 521 45,000 -480 Level Chicago Center
03:37PM 40.7906 -92.6306 53° Northeast 453 521 44,400 -840 Descending Chicago Center
03:38PM 40.8656 -92.4978 53° Northeast 452 520 43,300 -1,260 Descending Chicago Center
03:39PM 40.9414 -92.3661 53° Northeast 452 520 41,900 -1,380 Descending Chicago Center
03:40PM 41.0164 -92.2319 53° Northeast 454 522 40,500 -1,380 Descending Chicago Center
03:41PM 41.0911 -92.1033 52° Northeast 447 514 39,100 -1,560 Descending Chicago Center
03:42PM 41.1728 -91.9542 54° Northeast 425 489 37,400 -1,500 Descending Chicago Center
03:43PM 41.2425 -91.8308 53° Northeast 423 487 36,100 -1,320 Descending Chicago Center
03:44PM 41.3133 -91.7044 53° Northeast 428 493 34,700 -1,380 Descending Chicago Center
03:45PM 41.3839 -91.5758 54° Northeast 433 498 33,300 -1,380 Descending Chicago Center
03:46PM 41.4539 -91.4478 54° Northeast 434 499 31,900 -1,380 Descending Chicago Center
03:47PM 41.5397 -91.2917 54° Northeast 440 506 30,500 -960 Descending Chicago Center
03:48PM 41.6128 -91.1569 54° Northeast 450 518 30,000 -480 Descending Chicago Center
03:49PM 41.6889 -91.0175 54° Northeast 465 535 29,600 -480 Descending Chicago Center
03:50PM 41.7656 -90.8764 54° Northeast 471 542 29,100 -1,200 Descending Chicago Center
03:51PM 41.8392 -90.7383 54° Northeast 465 535 27,200 -2,040 Descending Chicago Center
03:52PM 41.9072 -90.6142 54° Northeast 424 488 25,000 -2,220 Descending Chicago Center
03:53PM 41.9597 -90.4531 66° East 405 466 22,700 -2,040 Descending Chicago Center
03:54PM 41.9903 -90.3133 74° East 394 453 20,900 -1,800 Descending Chicago Center
03:55PM 42.0206 -90.1717 74° East 398 458 19,100 -1,800 Descending Chicago Center
03:56PM 42.0511 -90.0300 74° East 398 458 17,300 -1,680 Descending Chicago Center
03:57PM 42.0814 -89.8939 73° East 341 392 15,700 -1,560 Descending Chicago Center
03:58PM 42.1067 -89.7742 74° East 333 383 14,200 -1,500 Descending Chicago Center
03:59PM 42.1325 -89.6500 74° East 343 395 12,600 -1,560 Descending Chicago Center
04:00PM 42.1572 -89.5219 75° East 351 404 11,000 -1,260 Descending Chicago Center
04:01PM 42.1850 -89.3914 74° East 311 358 10,000 -1,260 Descending Chicago Center
04:02PM 42.2056 -89.2983 73° East 265 305 8,500 -1,020 Descending Chicago Center
04:03PM 42.2253 -89.2014 75° East 267 307 8,000 -300 Descending Chicago Center
04:04PM 42.2467 -89.1033 74° East 273 314 8,000  Level Chicago Center
04:06PM 42.2675 -89.0058 74° East 272 313 8,000  Level Chicago Center
04:07PM 42.2886 -88.9075 74° East 272 313 8,000  Level Chicago Center
04:08PM 42.3117 -88.8008 74° East 274 315 8,000 -60 Level Chicago Center
04:09PM 42.3325 -88.7022 74° East 274 315 7,900 -780 Descending Chicago Center
04:10PM 42.3533 -88.6011 74° East 263 303 6,500 -1,320 Descending Chicago Center
04:11PM 42.3397 -88.5161 102° East 258 297 5,200 -1,260 Descending Chicago Center
04:12PM 42.3089 -88.4297 116° Southeast 237 273 4,000 -660 Descending Chicago Center
04:13PM 42.2819 -88.3539 116° Southeast 228 262 3,900 -240 Descending Chicago Center
04:14PM 42.2533 -88.2783 117° Southeast 228 262 3,600 -480 Descending Chicago Center
04:15PM 42.2289 -88.2106 116° Southeast 215 247 3,000 -600 Descending Chicago Center
04:16PM 42.2089 -88.1544 116° Southeast 194 223 2,400 -300 Descending Chicago Center
04:17PM 42.1914 -88.0986 113° Southeast 177 204 2,400  Level Chicago Center
04:18PM 42.1911 -88.0306 90° East 156 180 2,400 -180 Level Chicago Center
04:19PM 42.1892 -87.9714 93° East 157 181 2,100 -360 Descending Chicago Center
04:20PM 42.1606 -87.9350 137° Southeast 153 176 1,700 -420 Descending Chicago Center
04:23PM 42.1143 -87.9015 132° Southeast  Level Estimated